createdAt,value
2022-12-29T00:04:14.666Z,23.8037109375
2022-12-29T00:14:10.521Z,24.1943359375
2022-12-29T00:24:10.465Z,22.998046875
2022-12-29T00:34:10.399Z,23.7060546875
2022-12-29T00:44:10.296Z,24.1943359375
2022-12-29T00:54:10.265Z,24.90234375
2022-12-29T01:04:10.193Z,24.59716796875
2022-12-29T01:14:10.122Z,23.9013671875
2022-12-29T01:24:10.003Z,25.6103515625
2022-12-29T01:34:09.946Z,22.998046875
2022-12-29T01:44:09.987Z,24.1943359375
2022-12-29T01:54:09.792Z,24.69482421875
2022-12-29T02:04:09.840Z,25.48828125
2022-12-29T02:14:09.671Z,25.6103515625
2022-12-29T02:24:09.621Z,25.8056640625
2022-12-29T02:34:09.524Z,26.0009765625
2022-12-29T02:44:09.437Z,25
2022-12-29T02:54:09.362Z,24.69482421875
2022-12-29T03:04:09.395Z,24.69482421875
2022-12-29T03:14:09.213Z,23.8037109375
2022-12-29T03:24:09.112Z,23.30322265625
2022-12-29T03:34:09.037Z,22.59521484375
2022-12-29T03:36:56.091Z,22.49755859375
2022-12-29T03:46:55.567Z,22.49755859375
2022-12-29T03:56:55.576Z,22.0947265625
2022-12-29T04:06:55.402Z,21.9970703125
2022-12-29T04:16:55.373Z,21.8994140625
2022-12-29T04:26:55.266Z,21.8017578125
2022-12-29T04:36:55.409Z,21.7041015625
2022-12-29T04:46:55.337Z,21.49658203125
2022-12-29T04:56:55.098Z,21.39892578125
2022-12-29T05:06:55.014Z,21.20361328125
2022-12-29T05:16:54.948Z,21.10595703125
2022-12-29T05:26:54.867Z,20.99609375
2022-12-29T05:36:54.822Z,20.99609375
2022-12-29T05:46:54.797Z,20.8984375
2022-12-29T05:56:54.657Z,20.80078125
2022-12-29T06:06:54.653Z,20.703125
2022-12-29T06:16:54.614Z,20.49560546875
2022-12-29T06:26:54.417Z,20.60546875
2022-12-29T06:36:54.349Z,20.39794921875
2022-12-29T06:46:54.287Z,20.30029296875
2022-12-29T06:56:54.198Z,20.30029296875
2022-12-29T07:06:54.115Z,20.20263671875
2022-12-29T07:16:54.196Z,19.9951171875
2022-12-29T07:26:53.972Z,19.9951171875
2022-12-29T07:36:53.913Z,19.8974609375
2022-12-29T07:46:57.603Z,19.6044921875
2022-12-29T07:56:53.829Z,19.7021484375
2022-12-29T08:06:53.719Z,19.6044921875
2022-12-29T08:16:53.618Z,19.6044921875
2022-12-29T08:26:53.600Z,19.49462890625
2022-12-29T08:36:53.488Z,19.49462890625
2022-12-29T08:46:53.444Z,19.29931640625
2022-12-29T08:56:53.409Z,19.20166015625
2022-12-29T09:06:53.270Z,19.10400390625
2022-12-29T09:16:53.204Z,19.10400390625
2022-12-29T09:26:53.113Z,18.896484375
2022-12-29T09:36:53.120Z,18.798828125
2022-12-29T09:46:53.200Z,18.896484375
2022-12-29T09:56:52.899Z,18.798828125
2022-12-29T10:07:27.487Z,18.798828125
2022-12-29T10:16:52.948Z,18.701171875
2022-12-29T10:26:52.753Z,18.505859375
2022-12-29T10:36:52.612Z,18.505859375
2022-12-29T10:46:52.658Z,18.603515625
2022-12-29T10:56:53.277Z,18.505859375
2022-12-29T11:06:52.442Z,18.20068359375
2022-12-29T11:16:52.374Z,18.29833984375
2022-12-29T11:26:52.285Z,18.20068359375
2022-12-29T11:36:52.230Z,18.00537109375
2022-12-29T11:46:52.149Z,18.00537109375
2022-12-29T11:56:52.090Z,18.10302734375
2022-12-29T12:06:52.157Z,18.00537109375
2022-12-29T12:16:51.961Z,18.00537109375
2022-12-29T12:26:51.855Z,18.00537109375
2022-12-29T12:36:51.776Z,17.8955078125
2022-12-29T12:46:51.795Z,17.7001953125
2022-12-29T12:56:51.643Z,17.7978515625
2022-12-29T13:06:51.587Z,17.6025390625
2022-12-29T13:16:51.579Z,17.7001953125
2022-12-29T13:26:51.429Z,17.7001953125
2022-12-29T13:36:51.325Z,17.6025390625
2022-12-29T13:46:51.317Z,17.7001953125
2022-12-29T13:56:51.220Z,17.7001953125
2022-12-29T14:06:51.139Z,17.7001953125
2022-12-29T14:16:51.046Z,17.7978515625
2022-12-29T14:26:51.082Z,17.7978515625
2022-12-29T14:36:50.907Z,17.7978515625
2022-12-29T14:46:51.003Z,17.6025390625
2022-12-29T14:56:50.784Z,17.6025390625
2022-12-29T15:06:50.775Z,17.7978515625
2022-12-29T15:16:50.799Z,17.6025390625
2022-12-29T15:26:50.543Z,17.6025390625
2022-12-29T15:36:50.462Z,17.6025390625
2022-12-29T15:46:50.421Z,17.7001953125
2022-12-29T15:56:50.347Z,17.6025390625
2022-12-29T16:06:50.249Z,17.7001953125
2022-12-29T16:16:50.451Z,18.20068359375
2022-12-29T16:26:50.124Z,18.20068359375
2022-12-29T16:36:50.069Z,18.00537109375
2022-12-29T16:46:49.989Z,18.39599609375
2022-12-29T16:56:49.891Z,18.20068359375
2022-12-29T17:06:49.815Z,18.00537109375
2022-12-29T17:16:49.809Z,18.10302734375
2022-12-29T17:26:49.684Z,18.39599609375
2022-12-29T17:36:49.616Z,18.00537109375
2022-12-29T17:46:49.658Z,18.20068359375
2022-12-29T17:56:49.565Z,17.7978515625
2022-12-29T18:06:49.392Z,17.7001953125
2022-12-29T18:16:49.450Z,18.00537109375
2022-12-29T18:26:49.272Z,18.10302734375
2022-12-29T18:36:49.248Z,17.5048828125
2022-12-29T18:46:49.316Z,17.39501953125
2022-12-29T18:56:49.039Z,17.29736328125
2022-12-29T19:06:48.965Z,17.29736328125
2022-12-29T19:16:48.934Z,17.10205078125
2022-12-29T19:26:48.857Z,17.19970703125
2022-12-29T19:36:48.782Z,17.10205078125
2022-12-29T19:46:48.728Z,17.19970703125
2022-12-29T19:56:48.601Z,17.19970703125
2022-12-29T20:06:48.536Z,17.39501953125
2022-12-29T20:17:09.602Z,17.6025390625
2022-12-29T20:26:48.404Z,18.603515625
2022-12-29T20:36:48.312Z,19.39697265625
2022-12-29T20:46:48.320Z,19.7021484375
2022-12-29T20:56:48.179Z,20.80078125
2022-12-29T21:06:48.103Z,20.8984375
2022-12-29T21:16:48.119Z,20.30029296875
2022-12-29T21:26:47.994Z,19.7021484375
2022-12-29T21:36:48.019Z,19.49462890625
2022-12-29T21:46:47.869Z,19.39697265625
2022-12-29T22:06:48.021Z,19.20166015625
2022-12-29T22:16:47.622Z,19.10400390625
2022-12-29T22:26:47.532Z,18.896484375
2022-12-29T22:36:47.606Z,19.29931640625
2022-12-29T22:46:47.540Z,18.896484375
2022-12-29T22:56:47.321Z,20.20263671875
2022-12-29T23:06:47.362Z,21.20361328125
2022-12-29T23:16:47.185Z,21.59423828125
2022-12-29T23:26:47.116Z,21.49658203125
2022-12-29T23:36:47.070Z,21.49658203125
2022-12-29T23:46:47.078Z,20.703125
2022-12-29T23:56:46.936Z,20.10498046875
